Time;durP1;ratioP1;P1;durP2;ratioP2;P2;SDS_P1;SDS_P2;PMS_P1;PMS_P2;Temp;Humidity;BMP_temperature;BMP_pressure;BME280_temperature;BME280_humidity;BME280_pressure;Samples;Min_cycle;Max_cycle;Signal;HPM_P1;HPM_P2
2021/03/02 00:02:14;;;;;;;19.67;11.23;;;5.70;77.60;;;;;;5023069;28;20459;-40
2021/03/02 00:04:47;;;;;;;12.43;9.43;;;5.70;77.60;;;;;;5026370;28;20854;-40
2021/03/02 00:07:16;;;;;;;16.60;10.80;;;5.60;77.70;;;;;;5024766;28;20478;-40
2021/03/02 00:09:44;;;;;;;13.70;10.03;;;5.60;77.70;;;;;;5007969;28;20456;-40
2021/03/02 00:12:26;;;;;;;16.10;10.00;;;5.60;77.80;;;;;;5026359;28;20464;-40
2021/03/02 00:14:53;;;;;;;13.40;9.97;;;5.60;77.80;;;;;;5027554;28;20542;-40
2021/03/02 00:17:27;;;;;;;13.23;9.50;;;5.60;77.80;;;;;;5030598;28;20760;-40
2021/03/02 00:20:06;;;;;;;14.60;9.93;;;5.50;77.90;;;;;;5029634;28;20734;-40
2021/03/02 00:22:57;;;;;;;13.60;10.23;;;5.50;77.90;;;;;;5032782;28;20451;-40
2021/03/02 00:25:33;;;;;;;16.30;11.33;;;5.50;78.00;;;;;;5023498;28;20831;-40
2021/03/02 00:28:02;;;;;;;13.90;10.27;;;5.40;78.00;;;;;;5011813;28;20924;-40
2021/03/02 00:30:29;;;;;;;19.97;9.30;;;5.40;78.00;;;;;;5011361;28;20874;-40
2021/03/02 00:33:00;;;;;;;16.37;11.13;;;5.40;78.00;;;;;;5012529;28;20505;-40
2021/03/02 00:35:27;;;;;;;12.33;9.90;;;5.40;78.10;;;;;;5031920;28;20459;-40
2021/03/02 00:37:54;;;;;;;13.90;9.57;;;5.40;78.10;;;;;;5031238;28;20456;-40
2021/03/02 00:40:20;;;;;;;13.53;9.70;;;5.40;78.20;;;;;;5028350;28;20469;-40
2021/03/02 00:42:50;;;;;;;19.87;11.10;;;5.30;78.30;;;;;;5030705;28;20469;-40
2021/03/02 00:45:17;;;;;;;17.00;10.30;;;5.30;78.40;;;;;;5012670;28;20491;-40
2021/03/02 00:47:44;;;;;;;13.93;9.30;;;5.30;78.40;;;;;;5014090;28;20462;-40
2021/03/02 00:50:12;;;;;;;13.83;9.50;;;5.30;78.40;;;;;;5011786;28;20471;-40
2021/03/02 00:52:42;;;;;;;15.90;11.23;;;5.30;78.40;;;;;;5029975;28;20462;-40
2021/03/02 00:55:09;;;;;;;16.67;10.50;;;5.20;78.50;;;;;;4993981;28;20862;-40
2021/03/02 00:57:36;;;;;;;12.00;9.37;;;5.20;78.40;;;;;;5008462;28;20452;-40
2021/03/02 01:00:05;;;;;;;14.27;8.50;;;5.20;78.40;;;;;;5031437;28;20489;-40
2021/03/02 01:02:32;;;;;;;14.30;8.97;;;5.20;78.50;;;;;;5025765;28;20901;-40
2021/03/02 01:04:59;;;;;;;15.10;8.10;;;5.20;78.50;;;;;;5028053;28;20503;-40
2021/03/02 01:07:27;;;;;;;14.77;9.83;;;5.20;78.50;;;;;;5029170;28;20462;-40
2021/03/02 01:09:53;;;;;;;14.70;9.63;;;5.20;78.50;;;;;;5027582;28;20448;-40
2021/03/02 01:12:26;;;;;;;16.43;8.97;;;5.10;78.60;;;;;;5011512;28;20455;-40
2021/03/02 01:14:53;;;;;;;13.33;9.30;;;5.10;78.60;;;;;;5030168;28;20939;-40
2021/03/02 01:17:24;;;;;;;16.47;9.37;;;5.10;78.70;;;;;;5027671;28;20447;-40
2021/03/02 01:19:51;;;;;;;13.30;7.77;;;5.10;78.70;;;;;;5012100;28;20806;-40
2021/03/02 01:22:18;;;;;;;15.90;9.33;;;5.10;78.70;;;;;;5026395;28;20455;-40
2021/03/02 01:24:45;;;;;;;12.90;8.47;;;5.10;78.70;;;;;;5011734;28;20487;-40
2021/03/02 01:27:14;;;;;;;11.37;7.90;;;5.00;78.80;;;;;;5028039;28;20446;-40
2021/03/02 01:29:41;;;;;;;15.10;9.70;;;5.00;78.80;;;;;;5026659;28;20850;-40
2021/03/02 01:32:07;;;;;;;11.00;8.47;;;5.00;78.80;;;;;;5007812;28;20448;-40
2021/03/02 01:34:34;;;;;;;15.77;7.37;;;5.00;78.80;;;;;;5026592;28;20462;-40
2021/03/02 01:37:01;;;;;;;12.30;7.60;;;5.00;78.90;;;;;;5028992;28;20498;-40
2021/03/02 01:39:31;;;;;;;13.03;8.40;;;5.00;78.90;;;;;;5028815;28;20451;-40
2021/03/02 01:42:01;;;;;;;11.70;7.80;;;5.00;78.90;;;;;;5029097;28;20554;-40
2021/03/02 01:44:29;;;;;;;12.43;8.20;;;5.00;79.00;;;;;;5022914;28;20955;-40
2021/03/02 01:46:56;;;;;;;12.40;7.70;;;4.90;79.00;;;;;;5010187;28;20808;-40
2021/03/02 01:49:23;;;;;;;9.47;7.80;;;4.90;79.00;;;;;;5025063;28;20977;-40
2021/03/02 01:51:53;;;;;;;12.03;8.17;;;4.90;79.10;;;;;;5030860;28;20478;-40
2021/03/02 01:54:20;;;;;;;15.67;8.57;;;4.90;79.10;;;;;;5008803;28;20443;-40
2021/03/02 01:56:46;;;;;;;12.03;7.80;;;4.90;79.20;;;;;;5026656;28;20487;-40
2021/03/02 01:59:13;;;;;;;18.23;10.50;;;4.90;79.20;;;;;;5028410;28;21191;-40
2021/03/02 02:01:40;;;;;;;8.67;6.90;;;4.90;79.20;;;;;;5033458;28;20458;-40
2021/03/02 02:04:21;;;;;;;13.77;7.77;;;4.90;79.20;;;;;;5012684;28;20467;-40
2021/03/02 02:07:20;;;;;;;12.73;8.50;;;4.80;79.20;;;;;;5041429;28;20447;-40
2021/03/02 02:09:53;;;;;;;15.00;8.80;;;4.80;79.20;;;;;;5012823;28;20883;-40
2021/03/02 02:12:34;;;;;;;12.20;7.73;;;4.80;79.20;;;;;;5022658;28;20447;-40
2021/03/02 02:15:08;;;;;;;12.40;7.60;;;4.80;79.20;;;;;;5027800;28;20499;-40
2021/03/02 02:17:39;;;;;;;11.10;7.60;;;4.80;79.20;;;;;;5027291;28;20468;-40
2021/03/02 02:20:42;;;;;;;10.77;8.00;;;4.70;79.20;;;;;;5029925;28;20449;-40
2021/03/02 02:23:28;;;;;;;12.60;9.33;;;4.70;79.20;;;;;;5025787;28;20550;-40
2021/03/02 02:26:32;;;;;;;12.67;7.80;;;4.70;79.30;;;;;;5044146;28;20546;-40
2021/03/02 02:29:00;;;;;;;10.10;7.40;;;4.70;79.30;;;;;;5044692;28;20851;-40
2021/03/02 02:31:27;;;;;;;11.90;7.13;;;4.70;79.40;;;;;;5026725;28;20463;-40
2021/03/02 02:33:55;;;;;;;12.50;7.20;;;4.70;79.40;;;;;;5012196;28;20462;-40
2021/03/02 02:36:23;;;;;;;10.97;8.10;;;4.60;79.50;;;;;;5024335;28;20796;-40
2021/03/02 02:38:56;;;;;;;11.90;7.80;;;4.60;79.40;;;;;;4990611;28;20922;-40
2021/03/02 02:41:27;;;;;;;13.47;8.30;;;4.60;79.40;;;;;;5025413;28;20539;-40
2021/03/02 02:44:10;;;;;;;11.17;7.67;;;4.60;79.50;;;;;;5027762;28;20507;-40
2021/03/02 02:46:37;;;;;;;13.73;9.57;;;4.60;79.50;;;;;;5024944;28;20497;-40
2021/03/02 02:49:04;;;;;;;9.23;8.23;;;4.60;79.60;;;;;;5025316;28;20475;-40
2021/03/02 02:51:39;;;;;;;9.10;7.20;;;4.60;79.70;;;;;;5027539;28;20542;-40
2021/03/02 02:54:07;;;;;;;15.90;7.50;;;4.60;79.70;;;;;;5039899;28;20483;-40
2021/03/02 02:56:37;;;;;;;11.50;7.43;;;4.60;79.70;;;;;;5022261;28;20490;-40
2021/03/02 02:59:08;;;;;;;11.43;8.07;;;4.60;79.70;;;;;;5010270;28;20447;-40
2021/03/02 03:01:43;;;;;;;14.03;8.10;;;4.60;79.80;;;;;;5022006;28;20544;-40
2021/03/02 03:04:17;;;;;;;12.13;7.70;;;4.60;80.00;;;;;;5029177;28;20443;-40
2021/03/02 03:06:45;;;;;;;10.77;8.10;;;4.60;80.00;;;;;;5024833;28;20981;-40
2021/03/02 03:09:12;;;;;;;12.03;8.30;;;4.60;80.00;;;;;;4993259;28;21400;-40
2021/03/02 03:11:54;;;;;;;11.80;7.10;;;4.60;80.10;;;;;;5024910;28;20534;-40
2021/03/02 03:14:49;;;;;;;12.93;8.20;;;4.60;80.10;;;;;;5024781;28;20463;-40
2021/03/02 03:17:16;;;;;;;14.33;7.80;;;4.60;80.10;;;;;;5024551;28;20969;-40
2021/03/02 03:19:45;;;;;;;11.07;7.10;;;4.60;80.10;;;;;;5020896;28;21010;-40
2021/03/02 03:22:12;;;;;;;12.77;7.70;;;4.60;80.20;;;;;;5022219;28;20638;-40
2021/03/02 03:24:39;;;;;;;8.63;6.47;;;4.60;80.10;;;;;;5003914;28;20493;-40
2021/03/02 03:27:06;;;;;;;10.53;6.90;;;4.60;80.20;;;;;;5008487;28;20571;-40
2021/03/02 03:29:33;;;;;;;9.00;7.60;;;4.60;80.20;;;;;;5041845;28;20542;-40
2021/03/02 03:32:01;;;;;;;10.63;7.07;;;4.60;80.30;;;;;;5005178;28;20944;-40
2021/03/02 03:34:27;;;;;;;9.67;7.47;;;4.60;80.30;;;;;;5006946;28;20443;-40
2021/03/02 03:36:56;;;;;;;9.30;7.80;;;4.60;80.40;;;;;;5005784;28;20483;-40
2021/03/02 03:39:22;;;;;;;13.40;8.53;;;4.60;80.50;;;;;;5037310;28;20487;-40
2021/03/02 03:41:50;;;;;;;12.00;7.53;;;4.60;80.60;;;;;;5008609;28;20719;-40
2021/03/02 03:44:16;;;;;;;12.63;7.23;;;4.60;80.80;;;;;;5021725;28;20883;-40
2021/03/02 03:46:43;;;;;;;11.50;6.90;;;4.70;80.80;;;;;;5005407;28;20526;-40
2021/03/02 03:49:09;;;;;;;12.87;7.47;;;4.70;80.80;;;;;;5004283;28;21201;-40
2021/03/02 03:51:39;;;;;;;11.77;7.97;;;4.70;80.70;;;;;;5027835;28;20498;-41
2021/03/02 03:54:09;;;;;;;8.50;6.60;;;4.70;80.60;;;;;;5027606;28;20472;-40
2021/03/02 03:56:36;;;;;;;12.43;8.17;;;4.70;80.60;;;;;;5026517;28;20545;-40
2021/03/02 03:59:06;;;;;;;11.50;7.83;;;4.70;80.70;;;;;;5027323;28;20547;-40
2021/03/02 04:01:33;;;;;;;11.90;7.70;;;4.70;80.70;;;;;;5045536;28;20590;-40
2021/03/02 04:04:00;;;;;;;11.30;7.90;;;4.70;80.80;;;;;;5008740;28;20462;-40
2021/03/02 04:06:33;;;;;;;10.50;7.03;;;4.70;80.80;;;;;;5027090;28;20586;-40
2021/03/02 04:09:01;;;;;;;12.90;7.43;;;4.70;80.70;;;;;;5024837;28;20529;-40
2021/03/02 04:11:27;;;;;;;13.73;7.50;;;4.70;80.70;;;;;;5042780;28;20546;-40
2021/03/02 04:13:57;;;;;;;10.70;7.90;;;4.70;80.70;;;;;;5005940;28;20467;-40
2021/03/02 04:16:23;;;;;;;15.60;8.63;;;4.80;80.60;;;;;;5010062;28;20865;-40
2021/03/02 04:18:50;;;;;;;12.07;6.40;;;4.80;80.50;;;;;;5009911;28;20753;-40
2021/03/02 04:21:19;;;;;;;10.47;7.33;;;4.70;80.50;;;;;;5008786;28;20491;-40
2021/03/02 04:23:46;;;;;;;11.50;7.20;;;4.80;80.40;;;;;;5025560;28;20450;-40
2021/03/02 04:26:13;;;;;;;15.13;9.70;;;4.70;80.50;;;;;;5006422;28;20909;-40
2021/03/02 04:28:39;;;;;;;11.23;9.00;;;4.80;80.40;;;;;;5009409;28;20562;-40
2021/03/02 04:31:05;;;;;;;11.90;8.17;;;4.80;80.40;;;;;;5008008;28;20815;-40
2021/03/02 04:33:31;;;;;;;14.20;7.57;;;4.70;80.50;;;;;;5008302;28;20531;-40
2021/03/02 04:35:58;;;;;;;14.37;7.63;;;4.70;80.40;;;;;;5009793;28;20598;-40
2021/03/02 04:38:24;;;;;;;14.20;8.50;;;4.70;80.40;;;;;;5034465;28;20479;-40
2021/03/02 04:40:51;;;;;;;10.93;8.30;;;4.70;80.50;;;;;;5023980;28;20535;-40
2021/03/02 04:43:17;;;;;;;13.63;9.30;;;4.70;80.70;;;;;;5008267;28;20454;-40
2021/03/02 04:45:49;;;;;;;13.83;7.83;;;4.70;80.60;;;;;;5024239;28;20553;-40
2021/03/02 04:48:15;;;;;;;14.87;8.40;;;4.70;80.50;;;;;;5028144;28;20447;-40
2021/03/02 04:50:42;;;;;;;16.23;7.87;;;4.70;80.50;;;;;;5008967;28;20444;-40
2021/03/02 04:53:09;;;;;;;12.40;8.00;;;4.70;80.50;;;;;;5026400;28;20454;-40
2021/03/02 04:55:37;;;;;;;11.33;7.93;;;4.70;80.60;;;;;;5007351;28;20484;-40
2021/03/02 04:58:04;;;;;;;10.27;7.67;;;4.70;80.60;;;;;;5010000;28;20510;-40
2021/03/02 05:00:30;;;;;;;11.23;8.40;;;4.70;80.40;;;;;;5025423;28;20462;-40
2021/03/02 05:02:56;;;;;;;15.37;8.80;;;4.70;80.40;;;;;;5024753;28;20483;-40
2021/03/02 05:05:22;;;;;;;14.13;8.93;;;4.70;80.20;;;;;;5024306;28;20499;-40
2021/03/02 05:07:49;;;;;;;14.53;7.37;;;4.70;80.10;;;;;;5025330;28;20868;-40
2021/03/02 05:10:19;;;;;;;11.33;7.87;;;4.70;80.20;;;;;;5024882;28;20455;-40
2021/03/02 05:12:45;;;;;;;12.13;7.80;;;4.70;80.20;;;;;;4992014;28;20456;-40
2021/03/02 05:15:16;;;;;;;11.80;7.70;;;4.60;80.30;;;;;;5026138;28;20964;-40
2021/03/02 05:17:42;;;;;;;12.63;7.97;;;4.70;80.30;;;;;;5004490;28;21027;-40
2021/03/02 05:20:09;;;;;;;13.37;8.70;;;4.60;80.30;;;;;;5008259;28;21151;-40
2021/03/02 05:22:35;;;;;;;12.47;8.27;;;4.60;80.30;;;;;;5023514;28;20796;-40
2021/03/02 05:25:03;;;;;;;13.97;8.70;;;4.60;80.40;;;;;;5007393;28;20468;-40
2021/03/02 05:27:29;;;;;;;18.00;8.03;;;4.60;80.40;;;;;;5007249;28;20441;-40
2021/03/02 05:29:56;;;;;;;12.97;8.67;;;4.60;80.40;;;;;;5026314;28;20539;-40
2021/03/02 05:32:22;;;;;;;12.67;8.10;;;4.60;80.50;;;;;;5025140;28;20534;-40
2021/03/02 05:34:49;;;;;;;10.47;7.20;;;4.60;80.50;;;;;;5007509;28;20439;-40
2021/03/02 05:37:15;;;;;;;12.93;7.27;;;4.60;80.50;;;;;;5007476;28;20870;-40
2021/03/02 05:39:42;;;;;;;13.97;9.80;;;4.60;80.60;;;;;;4990915;28;20475;-40
2021/03/02 05:42:08;;;;;;;14.17;9.10;;;4.60;80.60;;;;;;5024642;28;20760;-40
2021/03/02 05:44:35;;;;;;;12.70;8.90;;;4.60;80.60;;;;;;5007959;28;20949;-40
2021/03/02 05:47:03;;;;;;;16.40;9.13;;;4.60;80.60;;;;;;5008318;28;20503;-40
2021/03/02 05:49:30;;;;;;;13.27;8.60;;;4.60;80.50;;;;;;5027412;28;20601;-40
2021/03/02 05:52:04;;;;;;;17.87;8.47;;;4.60;80.50;;;;;;5027537;28;20680;-40
2021/03/02 05:54:34;;;;;;;15.07;8.00;;;4.60;80.50;;;;;;5024954;28;20868;-40
2021/03/02 05:57:05;;;;;;;13.43;8.90;;;4.60;80.50;;;;;;5025475;28;20551;-40
2021/03/02 05:59:32;;;;;;;18.00;9.70;;;4.60;80.40;;;;;;5006399;28;20448;-40
2021/03/02 06:02:02;;;;;;;15.83;9.40;;;4.50;80.30;;;;;;5027189;28;20660;-40
2021/03/02 06:04:29;;;;;;;16.50;9.87;;;4.60;80.30;;;;;;5023985;28;20448;-40
2021/03/02 06:07:01;;;;;;;13.17;8.50;;;4.50;80.20;;;;;;5010304;28;20488;-40
2021/03/02 06:09:29;;;;;;;16.47;10.87;;;4.50;80.30;;;;;;5023424;28;20452;-40
2021/03/02 06:12:04;;;;;;;14.13;8.70;;;4.50;80.30;;;;;;5041787;28;20442;-40
2021/03/02 06:14:35;;;;;;;13.83;8.00;;;4.50;80.30;;;;;;5026555;28;20513;-40
2021/03/02 06:17:03;;;;;;;18.00;9.93;;;4.50;80.20;;;;;;5008564;28;20459;-40
2021/03/02 06:19:43;;;;;;;14.60;9.13;;;4.50;80.20;;;;;;4994285;28;20562;-40
2021/03/02 06:22:39;;;;;;;16.10;9.27;;;4.40;80.20;;;;;;5028827;28;21030;-40
2021/03/02 06:25:07;;;;;;;16.57;9.87;;;4.40;80.20;;;;;;5007771;28;20984;-39
2021/03/02 06:27:44;;;;;;;19.20;10.83;;;4.40;80.30;;;;;;5026527;28;20458;-40
2021/03/02 06:30:15;;;;;;;16.70;9.53;;;4.40;80.40;;;;;;5030217;28;21133;-40
2021/03/02 06:32:47;;;;;;;18.77;12.50;;;4.40;80.30;;;;;;5026753;28;20451;-40
2021/03/02 06:35:33;;;;;;;16.20;11.53;;;4.40;80.40;;;;;;5025688;28;20483;-40
2021/03/02 06:38:00;;;;;;;19.97;12.20;;;4.40;80.40;;;;;;5025476;28;20444;-40
2021/03/02 06:40:42;;;;;;;18.23;10.90;;;4.30;80.40;;;;;;5027186;28;20931;-40
2021/03/02 06:43:30;;;;;;;13.50;8.83;;;4.30;80.40;;;;;;5024130;28;20460;-40
2021/03/02 06:45:56;;;;;;;13.63;8.97;;;4.40;80.30;;;;;;5024793;28;20606;-40
2021/03/02 06:48:23;;;;;;;17.40;11.47;;;4.30;80.30;;;;;;5010321;28;20447;-40
2021/03/02 06:50:50;;;;;;;19.83;12.13;;;4.30;80.40;;;;;;5013621;28;20463;-40
2021/03/02 06:53:17;;;;;;;21.43;12.57;;;4.30;80.40;;;;;;5027017;28;20858;-40
2021/03/02 06:55:43;;;;;;;26.73;15.87;;;4.30;80.50;;;;;;5033899;28;20537;-40
2021/03/02 06:58:17;;;;;;;18.37;13.17;;;4.30;80.60;;;;;;5026337;28;20526;-40
2021/03/02 07:00:55;;;;;;;18.23;12.37;;;4.30;80.70;;;;;;5024920;28;20546;-40
2021/03/02 07:03:31;;;;;;;16.53;11.50;;;4.40;80.60;;;;;;5021615;28;20467;-40
2021/03/02 07:06:07;;;;;;;17.53;11.90;;;4.30;80.70;;;;;;5028424;28;20486;-40
2021/03/02 07:08:36;;;;;;;20.40;12.30;;;4.40;80.80;;;;;;5026643;28;20450;-40
2021/03/02 07:11:04;;;;;;;21.07;13.60;;;4.40;80.80;;;;;;5025641;28;20536;-39
2021/03/02 07:13:32;;;;;;;29.03;15.20;;;4.40;80.90;;;;;;4992630;28;20455;-41
2021/03/02 07:16:02;;;;;;;24.60;15.23;;;4.40;81.00;;;;;;5006631;28;20983;-40
2021/03/02 07:18:31;;;;;;;19.83;14.43;;;4.40;81.10;;;;;;5008148;28;20459;-40
2021/03/02 07:21:01;;;;;;;32.07;18.10;;;4.50;81.10;;;;;;5029924;28;20466;-40
2021/03/02 07:23:29;;;;;;;25.53;16.70;;;4.50;81.10;;;;;;5024911;28;20451;-40
2021/03/02 07:25:57;;;;;;;29.03;17.37;;;4.50;81.20;;;;;;5008323;28;20676;-40
2021/03/02 07:28:33;;;;;;;26.10;15.57;;;4.60;81.30;;;;;;5024499;28;20505;-40
2021/03/02 07:31:00;;;;;;;29.27;16.17;;;4.60;81.30;;;;;;5025739;28;20530;-40
2021/03/02 07:33:26;;;;;;;25.10;15.07;;;4.70;81.40;;;;;;5007276;28;20443;-40
2021/03/02 07:35:59;;;;;;;24.23;14.83;;;4.70;81.50;;;;;;5024953;28;20483;-40
2021/03/02 07:38:25;;;;;;;22.57;14.00;;;4.80;81.70;;;;;;5013026;28;20550;-40
2021/03/02 07:40:58;;;;;;;20.33;12.60;;;4.80;81.70;;;;;;5008254;28;20463;-40
2021/03/02 07:43:36;;;;;;;22.53;12.87;;;4.90;81.80;;;;;;5026416;28;20550;-40
2021/03/02 07:46:28;;;;;;;21.70;12.47;;;5.00;82.10;;;;;;5008532;28;20484;-40
2021/03/02 07:48:55;;;;;;;22.60;12.03;;;5.20;81.90;;;;;;5034695;28;20455;-40
2021/03/02 07:51:25;;;;;;;20.50;12.37;;;5.30;81.90;;;;;;5026485;28;20505;-40
2021/03/02 07:54:12;;;;;;;16.90;11.43;;;5.30;81.60;;;;;;5032880;28;20451;-40
2021/03/02 07:56:38;;;;;;;17.03;11.50;;;5.50;81.50;;;;;;5010478;28;20486;-40
2021/03/02 07:59:11;;;;;;;15.87;10.70;;;5.60;81.00;;;;;;5026816;28;20443;-40
2021/03/02 08:01:38;;;;;;;16.33;11.20;;;5.80;80.30;;;;;;5027180;28;20509;-40
2021/03/02 08:04:14;;;;;;;20.77;12.33;;;5.90;79.90;;;;;;5026611;28;20450;-40
2021/03/02 08:06:50;;;;;;;18.53;12.60;;;6.10;79.50;;;;;;5026929;28;20511;-40
2021/03/02 08:09:25;;;;;;;20.17;11.37;;;6.20;79.00;;;;;;5024797;28;20550;-40
2021/03/02 08:11:54;;;;;;;17.50;12.10;;;6.40;78.70;;;;;;5034321;28;20459;-40
2021/03/02 08:14:28;;;;;;;17.43;11.80;;;6.60;78.20;;;;;;4985917;28;20545;-40
2021/03/02 08:17:05;;;;;;;19.57;13.00;;;6.70;77.70;;;;;;5040835;28;20471;-39
2021/03/02 08:19:48;;;;;;;17.83;12.70;;;6.90;76.70;;;;;;5007997;28;20872;-40
2021/03/02 08:22:22;;;;;;;15.97;11.13;;;7.10;76.10;;;;;;5026338;28;20557;-39
2021/03/02 08:25:05;;;;;;;18.40;12.83;;;7.30;75.20;;;;;;5026827;28;20454;-39
2021/03/02 08:27:50;;;;;;;14.43;9.73;;;7.50;75.10;;;;;;5022732;28;20470;-40
2021/03/02 08:30:22;;;;;;;16.43;11.30;;;7.70;74.30;;;;;;5023567;28;20492;-40
2021/03/02 08:32:49;;;;;;;16.80;9.77;;;7.90;73.10;;;;;;5004191;28;21023;-39
2021/03/02 08:35:21;;;;;;;14.90;11.13;;;8.20;72.30;;;;;;5000893;28;20511;-40
2021/03/02 08:38:01;;;;;;;20.47;11.23;;;8.40;71.20;;;;;;5024568;28;20527;-40
2021/03/02 08:40:31;;;;;;;16.77;10.97;;;8.60;69.80;;;;;;5028827;28;20983;-40
2021/03/02 08:43:19;;;;;;;13.47;10.53;;;8.80;68.40;;;;;;5029430;28;20543;-40
2021/03/02 08:45:56;;;;;;;19.03;12.03;;;9.00;67.80;;;;;;5024867;28;20487;-40
2021/03/02 08:48:39;;;;;;;14.00;9.60;;;9.10;67.70;;;;;;5028754;28;20487;-40
2021/03/02 08:51:12;;;;;;;18.47;10.40;;;9.30;67.40;;;;;;5011725;28;20451;-40
2021/03/02 08:53:40;;;;;;;15.67;11.10;;;9.40;67.10;;;;;;4994796;28;20783;-40
2021/03/02 08:56:27;;;;;;;13.43;9.73;;;9.60;66.30;;;;;;5025812;28;20451;-40
2021/03/02 08:58:54;;;;;;;20.50;11.80;;;9.60;66.20;;;;;;5044723;28;20537;-40
2021/03/02 09:01:25;;;;;;;15.77;10.70;;;9.70;66.10;;;;;;5026259;28;20546;-40
2021/03/02 09:04:08;;;;;;;17.63;11.30;;;9.80;66.20;;;;;;5029737;28;20455;-40
2021/03/02 09:06:36;;;;;;;16.57;10.07;;;9.80;66.20;;;;;;5027819;28;20490;-40
2021/03/02 09:09:06;;;;;;;16.97;10.10;;;9.80;65.90;;;;;;5024931;28;20890;-40
2021/03/02 09:11:38;;;;;;;15.60;11.27;;;9.80;65.80;;;;;;5011224;28;20454;-40
2021/03/02 09:14:12;;;;;;;16.50;10.30;;;9.80;65.80;;;;;;5041471;28;20474;-40
2021/03/02 09:16:45;;;;;;;15.97;10.30;;;9.90;65.40;;;;;;5042598;28;20487;-40
2021/03/02 09:19:37;;;;;;;12.73;8.77;;;9.90;65.30;;;;;;5024222;28;20459;-40
2021/03/02 09:22:15;;;;;;;17.70;11.07;;;10.00;64.80;;;;;;5038195;28;20499;-40
2021/03/02 09:24:55;;;;;;;17.90;10.43;;;10.00;65.10;;;;;;5027597;28;20531;-40
2021/03/02 09:27:33;;;;;;;17.30;11.53;;;10.00;65.30;;;;;;5027009;28;20506;-40
2021/03/02 09:30:08;;;;;;;19.20;11.33;;;10.10;65.20;;;;;;5028877;28;20439;-40
2021/03/02 09:32:35;;;;;;;15.83;10.90;;;10.10;65.20;;;;;;5040935;28;20447;-40
2021/03/02 09:35:08;;;;;;;15.40;9.97;;;10.20;65.20;;;;;;5027794;28;20447;-40
2021/03/02 09:37:36;;;;;;;15.97;10.77;;;10.30;65.10;;;;;;5043001;28;20574;-40
2021/03/02 09:40:11;;;;;;;16.23;9.83;;;10.30;65.00;;;;;;5024659;28;20525;-40
2021/03/02 09:42:51;;;;;;;14.63;10.80;;;10.40;64.70;;;;;;5024941;28;20504;-40
2021/03/02 09:45:18;;;;;;;15.00;10.53;;;10.50;64.40;;;;;;5027015;28;20507;-40
2021/03/02 09:47:48;;;;;;;18.10;12.37;;;10.50;64.60;;;;;;5020679;28;20533;-40
2021/03/02 09:50:18;;;;;;;17.67;12.03;;;10.60;64.40;;;;;;5025270;28;20507;-40
2021/03/02 09:52:52;;;;;;;13.83;9.90;;;10.80;64.30;;;;;;5009401;28;20462;-40
2021/03/02 09:55:21;;;;;;;15.93;11.13;;;10.90;63.80;;;;;;5027407;28;21044;-40
2021/03/02 09:57:56;;;;;;;15.63;10.83;;;11.10;63.40;;;;;;5026496;28;20447;-40
2021/03/02 10:00:31;;;;;;;15.10;11.57;;;11.20;63.10;;;;;;5037395;28;20458;-40
2021/03/02 10:02:59;;;;;;;15.97;11.53;;;11.40;62.40;;;;;;5006582;28;20874;-40
2021/03/02 10:05:31;;;;;;;19.83;11.23;;;11.60;61.90;;;;;;4990763;28;20456;-40
2021/03/02 10:08:16;;;;;;;16.30;10.90;;;11.80;61.70;;;;;;5008014;28;20538;-40
2021/03/02 10:10:43;;;;;;;19.77;12.00;;;12.00;61.00;;;;;;5022473;28;20508;-40
2021/03/02 10:13:11;;;;;;;17.00;10.80;;;12.20;60.20;;;;;;5023770;28;20443;-40
2021/03/02 10:15:37;;;;;;;18.83;11.83;;;12.40;59.20;;;;;;5028980;28;20481;-40
2021/03/02 10:18:25;;;;;;;15.37;10.33;;;12.70;59.00;;;;;;5026411;28;20452;-40
2021/03/02 10:21:05;;;;;;;15.00;11.00;;;13.00;58.20;;;;;;5033859;28;20558;-40
2021/03/02 10:23:32;;;;;;;15.20;11.40;;;13.20;57.20;;;;;;5009665;28;21263;-40
2021/03/02 10:26:00;;;;;;;15.20;10.47;;;13.40;56.60;;;;;;5007539;28;20491;-40
2021/03/02 10:28:32;;;;;;;22.30;11.77;;;13.60;56.10;;;;;;5008344;28;20873;-40
2021/03/02 10:31:00;;;;;;;16.60;11.70;;;13.90;55.20;;;;;;4991077;28;20497;-40
2021/03/02 10:33:27;;;;;;;14.70;11.10;;;14.10;54.30;;;;;;5025421;28;20505;-40
2021/03/02 10:35:55;;;;;;;19.17;11.90;;;14.30;54.30;;;;;;5024148;28;20985;-40
2021/03/02 10:38:21;;;;;;;16.87;12.27;;;14.50;54.30;;;;;;5026162;28;20863;-40
2021/03/02 10:40:47;;;;;;;14.70;10.80;;;14.80;54.00;;;;;;5025799;28;20519;-40
2021/03/02 10:43:17;;;;;;;18.03;12.10;;;15.00;53.70;;;;;;5029076;28;20940;-41
2021/03/02 10:45:44;;;;;;;16.90;11.80;;;15.20;52.90;;;;;;5033924;28;20487;-40
2021/03/02 10:48:11;;;;;;;16.43;11.13;;;15.30;51.70;;;;;;5008160;28;20467;-40
2021/03/02 10:50:39;;;;;;;17.07;11.47;;;15.40;51.50;;;;;;5033351;28;20478;-40
2021/03/02 10:53:06;;;;;;;19.83;11.93;;;15.50;51.20;;;;;;5007305;28;20456;-40
2021/03/02 10:55:32;;;;;;;16.10;11.60;;;15.60;51.00;;;;;;5007217;28;20484;-40
2021/03/02 10:57:58;;;;;;;14.60;11.40;;;15.70;51.30;;;;;;5024152;28;20518;-40
2021/03/02 11:00:25;;;;;;;20.10;12.20;;;15.70;50.80;;;;;;5009255;28;20542;-40
2021/03/02 11:02:51;;;;;;;20.47;11.70;;;15.70;50.50;;;;;;5018868;28;20451;-40
2021/03/02 11:05:18;;;;;;;16.23;11.90;;;15.70;50.40;;;;;;5010410;28;20459;-40
2021/03/02 11:07:44;;;;;;;17.40;11.97;;;15.70;50.70;;;;;;5010209;28;20475;-40
2021/03/02 11:10:11;;;;;;;16.70;12.77;;;15.60;50.50;;;;;;5009149;28;20463;-40
2021/03/02 11:12:42;;;;;;;19.10;12.80;;;15.60;50.70;;;;;;5026986;28;20447;-40
2021/03/02 11:15:13;;;;;;;17.00;12.50;;;15.60;50.70;;;;;;5030724;28;20576;-40
2021/03/02 11:17:40;;;;;;;16.73;11.83;;;15.60;50.70;;;;;;5041882;28;20459;-40
2021/03/02 11:20:07;;;;;;;19.03;12.07;;;15.60;50.80;;;;;;5027651;28;20510;-40
2021/03/02 11:22:40;;;;;;;18.63;12.43;;;15.60;50.10;;;;;;5041782;28;20463;-40
2021/03/02 11:25:16;;;;;;;17.00;12.63;;;15.50;50.30;;;;;;5024722;28;20491;-40
2021/03/02 11:27:44;;;;;;;20.87;12.87;;;15.50;50.60;;;;;;5028322;28;20549;-40
2021/03/02 11:30:12;;;;;;;16.47;11.70;;;15.50;50.70;;;;;;5025918;28;20526;-40
2021/03/02 11:32:38;;;;;;;15.03;10.90;;;15.40;51.00;;;;;;5032734;28;20455;-40
2021/03/02 11:35:10;;;;;;;18.50;11.60;;;15.40;50.90;;;;;;5005876;28;20459;-40
2021/03/02 11:37:40;;;;;;;18.47;13.00;;;15.50;50.50;;;;;;5035338;28;21008;-40
2021/03/02 11:40:09;;;;;;;19.73;12.80;;;15.50;50.70;;;;;;5023959;28;20924;-40
2021/03/02 11:42:37;;;;;;;19.67;11.57;;;15.50;50.50;;;;;;5007145;28;20466;-40
2021/03/02 11:45:16;;;;;;;18.93;12.40;;;15.50;50.50;;;;;;5024962;28;20558;-40
2021/03/02 11:47:42;;;;;;;16.33;12.20;;;15.40;50.60;;;;;;4990194;28;20494;-40
2021/03/02 11:50:09;;;;;;;14.93;11.53;;;15.40;50.50;;;;;;5022645;28;20467;-40
2021/03/02 11:52:36;;;;;;;16.17;10.87;;;15.50;50.60;;;;;;5020474;28;20493;-40
2021/03/02 11:55:04;;;;;;;19.80;13.00;;;15.40;50.80;;;;;;5031158;28;20451;-40
2021/03/02 11:57:31;;;;;;;17.80;11.73;;;15.30;50.80;;;;;;5008545;28;20522;-40
2021/03/02 12:00:00;;;;;;;16.70;11.53;;;15.30;50.90;;;;;;5024039;28;20536;-40
2021/03/02 12:02:27;;;;;;;18.13;11.80;;;15.20;50.80;;;;;;5026072;28;20502;-40
2021/03/02 12:04:53;;;;;;;22.57;14.90;;;15.10;50.90;;;;;;5009831;28;20507;-40
2021/03/02 12:07:20;;;;;;;18.70;13.17;;;15.10;51.60;;;;;;4993041;28;20539;-40
2021/03/02 12:09:49;;;;;;;18.27;11.43;;;15.00;51.80;;;;;;5008656;28;20560;-40
2021/03/02 12:12:18;;;;;;;20.03;12.17;;;15.00;52.00;;;;;;5012621;28;22256;-40
2021/03/02 12:14:44;;;;;;;20.80;11.20;;;15.00;51.90;;;;;;5033368;28;20451;-40
2021/03/02 12:17:11;;;;;;;18.50;12.47;;;15.00;52.00;;;;;;5032107;28;20801;-40
2021/03/02 12:19:38;;;;;;;18.53;12.57;;;15.10;52.20;;;;;;5026989;28;20547;-40
2021/03/02 12:22:04;;;;;;;16.27;11.10;;;15.10;52.40;;;;;;5027604;28;20459;-40
2021/03/02 12:24:31;;;;;;;17.37;11.57;;;15.10;51.70;;;;;;5010705;28;21011;-40
2021/03/02 12:26:59;;;;;;;17.13;11.50;;;15.10;51.60;;;;;;5030430;28;21061;-40
2021/03/02 12:29:26;;;;;;;16.40;11.27;;;15.10;52.10;;;;;;5025800;28;20574;-40
2021/03/02 12:31:52;;;;;;;16.93;11.70;;;15.10;52.40;;;;;;5012766;28;20491;-40
2021/03/02 12:34:18;;;;;;;24.30;11.93;;;15.10;52.20;;;;;;4997339;28;20479;-40
2021/03/02 12:36:45;;;;;;;18.17;12.20;;;15.20;52.20;;;;;;5037819;28;20542;-40
2021/03/02 12:39:11;;;;;;;18.73;11.93;;;15.20;52.10;;;;;;5013389;28;20447;-40
2021/03/02 12:41:38;;;;;;;18.90;12.37;;;15.20;51.70;;;;;;5027781;28;20472;-40
2021/03/02 12:44:05;;;;;;;19.07;12.30;;;15.20;51.60;;;;;;5030549;28;20810;-40
2021/03/02 12:46:33;;;;;;;15.00;11.17;;;15.20;51.90;;;;;;5029143;28;20519;-40
2021/03/02 12:49:06;;;;;;;20.13;12.57;;;15.30;51.90;;;;;;5026829;28;20443;-40
2021/03/02 12:51:38;;;;;;;16.20;11.07;;;15.30;52.20;;;;;;4994621;28;20853;-40
2021/03/02 12:54:05;;;;;;;19.50;13.73;;;15.40;51.60;;;;;;4991941;28;20463;-40
2021/03/02 12:56:32;;;;;;;15.23;11.07;;;15.40;51.50;;;;;;5027889;28;20464;-40